sensor_id;sensor_type;location;lat;lon;timestamp;pressure;altitude;pressure_sealevel;temperature;humidity
14902;BME280;7542;49.078;9.194;2023-07-13T00:00:53;98539.25;;;32.84;28.36
14902;BME280;7542;49.078;9.194;2023-07-13T00:01:55;98552.66;;;32.80;28.30
14902;BME280;7542;49.078;9.194;2023-07-13T00:02:57;98554.38;;;32.76;28.73
14902;BME280;7542;49.078;9.194;2023-07-13T00:04:01;98565.88;;;32.73;28.72
14902;BME280;7542;49.078;9.194;2023-07-13T00:05:03;98564.59;;;32.71;28.51
14902;BME280;7542;49.078;9.194;2023-07-13T00:06:05;98562.00;;;32.66;28.27
14902;BME280;7542;49.078;9.194;2023-07-13T00:07:08;98557.53;;;32.61;28.99
14902;BME280;7542;49.078;9.194;2023-07-13T00:08:10;98560.88;;;32.58;28.80
14902;BME280;7542;49.078;9.194;2023-07-13T00:09:14;98556.06;;;32.55;28.64
14902;BME280;7542;49.078;9.194;2023-07-13T00:10:18;98553.19;;;32.51;28.69
14902;BME280;7542;49.078;9.194;2023-07-13T00:11:20;98550.00;;;32.49;28.83
14902;BME280;7542;49.078;9.194;2023-07-13T00:12:35;98557.50;;;32.52;28.55
14902;BME280;7542;49.078;9.194;2023-07-13T00:13:38;98550.91;;;32.45;28.52
14902;BME280;7542;49.078;9.194;2023-07-13T00:14:40;98553.00;;;32.39;28.63
14902;BME280;7542;49.078;9.194;2023-07-13T00:15:43;98548.19;;;32.36;28.68
14902;BME280;7542;49.078;9.194;2023-07-13T00:16:45;98548.00;;;32.33;28.81
14902;BME280;7542;49.078;9.194;2023-07-13T00:17:55;98544.19;;;32.34;28.80
14902;BME280;7542;49.078;9.194;2023-07-13T00:18:57;98541.59;;;32.28;28.61
14902;BME280;7542;49.078;9.194;2023-07-13T00:19:59;98551.47;;;32.24;29.00
14902;BME280;7542;49.078;9.194;2023-07-13T00:21:01;98545.06;;;32.20;28.87
14902;BME280;7542;49.078;9.194;2023-07-13T00:22:06;98547.28;;;32.18;28.64
14902;BME280;7542;49.078;9.194;2023-07-13T00:23:09;98547.59;;;32.17;28.33
14902;BME280;7542;49.078;9.194;2023-07-13T00:24:18;98546.31;;;32.14;28.69
14902;BME280;7542;49.078;9.194;2023-07-13T00:25:26;98541.69;;;32.15;28.85
14902;BME280;7542;49.078;9.194;2023-07-13T00:26:30;98536.38;;;32.10;28.74
14902;BME280;7542;49.078;9.194;2023-07-13T00:27:34;98542.13;;;32.08;28.80
14902;BME280;7542;49.078;9.194;2023-07-13T00:28:37;98544.34;;;32.06;29.02
14902;BME280;7542;49.078;9.194;2023-07-13T00:29:39;98541.16;;;32.04;28.79
14902;BME280;7542;49.078;9.194;2023-07-13T00:30:41;98542.56;;;32.01;28.85
14902;BME280;7542;49.078;9.194;2023-07-13T00:31:43;98539.38;;;31.99;28.78
14902;BME280;7542;49.078;9.194;2023-07-13T00:32:46;98542.41;;;31.98;28.94
14902;BME280;7542;49.078;9.194;2023-07-13T00:33:48;98540.00;;;31.96;28.65
14902;BME280;7542;49.078;9.194;2023-07-13T00:34:51;98531.38;;;31.94;28.93
14902;BME280;7542;49.078;9.194;2023-07-13T00:35:56;98523.56;;;31.93;28.82
14902;BME280;7542;49.078;9.194;2023-07-13T00:36:58;98527.66;;;31.90;29.20
14902;BME280;7542;49.078;9.194;2023-07-13T00:38:00;98524.47;;;31.88;28.93
14902;BME280;7542;49.078;9.194;2023-07-13T00:39:03;98526.38;;;31.88;29.04
14902;BME280;7542;49.078;9.194;2023-07-13T00:40:07;98526.69;;;31.86;28.84
14902;BME280;7542;49.078;9.194;2023-07-13T00:41:10;98531.94;;;31.83;28.88
14902;BME280;7542;49.078;9.194;2023-07-13T00:42:12;98531.94;;;31.83;28.66
14902;BME280;7542;49.078;9.194;2023-07-13T00:43:18;98539.78;;;31.84;28.94
14902;BME280;7542;49.078;9.194;2023-07-13T00:44:21;98539.59;;;31.81;28.83
14902;BME280;7542;49.078;9.194;2023-07-13T00:46:32;98548.03;;;31.79;29.21
14902;BME280;7542;49.078;9.194;2023-07-13T00:47:34;98549.13;;;31.78;29.07
14902;BME280;7542;49.078;9.194;2023-07-13T00:48:37;98550.84;;;31.74;29.34
14902;BME280;7542;49.078;9.194;2023-07-13T00:49:40;98541.91;;;31.73;29.33
14902;BME280;7542;49.078;9.194;2023-07-13T00:50:44;98541.44;;;31.71;29.07
14902;BME280;7542;49.078;9.194;2023-07-13T00:52:56;98534.69;;;31.69;29.38
14902;BME280;7542;49.078;9.194;2023-07-13T00:54:05;98535.22;;;31.71;29.15
14902;BME280;7542;49.078;9.194;2023-07-13T00:55:11;98531.19;;;31.68;29.35
14902;BME280;7542;49.078;9.194;2023-07-13T00:56:14;98531.00;;;31.65;29.11
14902;BME280;7542;49.078;9.194;2023-07-13T00:57:20;98534.03;;;31.63;29.21
14902;BME280;7542;49.078;9.194;2023-07-13T00:58:25;98535.94;;;31.63;29.33
14902;BME280;7542;49.078;9.194;2023-07-13T00:59:30;98537.06;;;31.62;29.35
14902;BME280;7542;49.078;9.194;2023-07-13T01:00:36;98532.44;;;31.62;29.43
14902;BME280;7542;49.078;9.194;2023-07-13T01:01:39;98540.38;;;31.59;29.52
14902;BME280;7542;49.078;9.194;2023-07-13T01:02:45;98537.06;;;31.62;29.43
14902;BME280;7542;49.078;9.194;2023-07-13T01:03:48;98542.78;;;31.60;29.75
14902;BME280;7542;49.078;9.194;2023-07-13T01:04:50;98536.56;;;31.60;29.48
14902;BME280;7542;49.078;9.194;2023-07-13T01:05:53;98538.47;;;31.59;29.33
14902;BME280;7542;49.078;9.194;2023-07-13T01:06:57;98540.06;;;31.60;29.52
14902;BME280;7542;49.078;9.194;2023-07-13T01:08:01;98534.66;;;31.60;29.77
14902;BME280;7542;49.078;9.194;2023-07-13T01:09:06;98541.84;;;31.65;29.67
14902;BME280;7542;49.078;9.194;2023-07-13T01:10:10;98538.66;;;31.63;29.82
14902;BME280;7542;49.078;9.194;2023-07-13T01:11:12;98536.75;;;31.63;29.27
14902;BME280;7542;49.078;9.194;2023-07-13T01:12:19;98545.34;;;31.65;29.80
14902;BME280;7542;49.078;9.194;2023-07-13T01:13:22;98543.44;;;31.66;29.56
14902;BME280;7542;49.078;9.194;2023-07-13T01:14:25;98550.28;;;31.63;29.85
14902;BME280;7542;49.078;9.194;2023-07-13T01:15:46;98552.47;;;31.75;29.61
14902;BME280;7542;49.078;9.194;2023-07-13T01:16:49;98552.69;;;31.65;29.31
14902;BME280;7542;49.078;9.194;2023-07-13T01:17:52;98554.59;;;31.64;29.31
14902;BME280;7542;49.078;9.194;2023-07-13T01:18:55;98554.91;;;31.63;29.36
14902;BME280;7542;49.078;9.194;2023-07-13T01:20:00;98559.84;;;31.61;29.48
14902;BME280;7542;49.078;9.194;2023-07-13T01:21:04;98547.69;;;31.58;28.88
14902;BME280;7542;49.078;9.194;2023-07-13T01:22:12;98550.13;;;31.60;29.03
14902;BME280;7542;49.078;9.194;2023-07-13T01:23:15;98555.81;;;31.58;29.32
14902;BME280;7542;49.078;9.194;2023-07-13T01:24:17;98555.34;;;31.56;28.91
14902;BME280;7542;49.078;9.194;2023-07-13T01:25:20;98548.94;;;31.52;28.83
14902;BME280;7542;49.078;9.194;2023-07-13T01:26:22;98552.44;;;31.53;28.99
14902;BME280;7542;49.078;9.194;2023-07-13T01:27:26;98549.25;;;31.51;28.96
14902;BME280;7542;49.078;9.194;2023-07-13T01:28:28;98552.56;;;31.48;29.02
14902;BME280;7542;49.078;9.194;2023-07-13T01:29:33;98550.16;;;31.46;28.77
14902;BME280;7542;49.078;9.194;2023-07-13T01:30:38;98550.97;;;31.47;28.69
14902;BME280;7542;49.078;9.194;2023-07-13T01:31:41;98547.75;;;31.44;28.87
14902;BME280;7542;49.078;9.194;2023-07-13T01:32:43;98550.78;;;31.43;29.07
14902;BME280;7542;49.078;9.194;2023-07-13T01:33:45;98553.00;;;31.41;28.86
14902;BME280;7542;49.078;9.194;2023-07-13T01:34:47;98547.91;;;31.39;29.30
14902;BME280;7542;49.078;9.194;2023-07-13T01:35:50;98555.22;;;31.39;28.76
14902;BME280;7542;49.078;9.194;2023-07-13T01:36:52;98555.81;;;31.36;28.84
14902;BME280;7542;49.078;9.194;2023-07-13T01:37:55;98546.56;;;31.37;29.27
14902;BME280;7542;49.078;9.194;2023-07-13T01:38:58;98549.59;;;31.35;28.89
14902;BME280;7542;49.078;9.194;2023-07-13T01:40:00;98550.72;;;31.34;29.24
14902;BME280;7542;49.078;9.194;2023-07-13T01:41:03;98545.91;;;31.31;29.15
14902;BME280;7542;49.078;9.194;2023-07-13T01:42:05;98550.53;;;31.31;29.36
14902;BME280;7542;49.078;9.194;2023-07-13T01:43:07;98547.81;;;31.31;29.17
14902;BME280;7542;49.078;9.194;2023-07-13T01:44:10;98544.63;;;31.29;29.39
14902;BME280;7542;49.078;9.194;2023-07-13T01:45:12;98545.72;;;31.28;29.47
14902;BME280;7542;49.078;9.194;2023-07-13T01:46:14;98544.94;;;31.27;29.03
14902;BME280;7542;49.078;9.194;2023-07-13T01:47:19;98546.03;;;31.26;28.97
14902;BME280;7542;49.078;9.194;2023-07-13T01:48:21;98541.22;;;31.23;29.30
14902;BME280;7542;49.078;9.194;2023-07-13T01:49:23;98543.91;;;31.23;29.42
14902;BME280;7542;49.078;9.194;2023-07-13T01:50:25;98544.53;;;31.20;28.84
14902;BME280;7542;49.078;9.194;2023-07-13T01:51:27;98554.56;;;31.20;29.33
14902;BME280;7542;49.078;9.194;2023-07-13T01:52:29;98554.56;;;31.20;29.58
14902;BME280;7542;49.078;9.194;2023-07-13T01:53:31;98557.06;;;31.16;29.34
14902;BME280;7542;49.078;9.194;2023-07-13T01:54:33;98553.56;;;31.15;29.29
14902;BME280;7542;49.078;9.194;2023-07-13T01:55:36;98551.13;;;31.14;29.32
14902;BME280;7542;49.078;9.194;2023-07-13T01:56:39;98558.47;;;31.13;28.99
14902;BME280;7542;49.078;9.194;2023-07-13T01:57:41;98557.97;;;31.11;29.50
14902;BME280;7542;49.078;9.194;2023-07-13T01:58:45;98560.19;;;31.09;29.46
14902;BME280;7542;49.078;9.194;2023-07-13T01:59:47;98565.59;;;31.09;29.38
14902;BME280;7542;49.078;9.194;2023-07-13T02:00:49;98559.69;;;31.07;29.12
14902;BME280;7542;49.078;9.194;2023-07-13T02:01:53;98560.00;;;31.06;28.99
14902;BME280;7542;49.078;9.194;2023-07-13T02:02:55;98558.41;;;31.05;29.46
14902;BME280;7542;49.078;9.194;2023-07-13T02:03:57;98556.78;;;31.04;29.13
14902;BME280;7542;49.078;9.194;2023-07-13T02:04:59;98559.00;;;31.02;29.44
14902;BME280;7542;49.078;9.194;2023-07-13T02:06:01;98560.09;;;31.01;29.17
14902;BME280;7542;49.078;9.194;2023-07-13T02:07:04;98558.00;;;30.98;29.42
14902;BME280;7542;49.078;9.194;2023-07-13T02:08:06;98565.03;;;30.99;29.21
14902;BME280;7542;49.078;9.194;2023-07-13T02:09:08;98563.44;;;30.98;29.40
14902;BME280;7542;49.078;9.194;2023-07-13T02:10:11;98570.25;;;30.95;29.53
14902;BME280;7542;49.078;9.194;2023-07-13T02:11:13;98569.47;;;30.95;29.10
14902;BME280;7542;49.078;9.194;2023-07-13T02:12:15;98572.44;;;30.93;29.22
14902;BME280;7542;49.078;9.194;2023-07-13T02:13:17;98571.66;;;30.93;29.20
14902;BME280;7542;49.078;9.194;2023-07-13T02:14:19;98566.22;;;30.93;29.11
14902;BME280;7542;49.078;9.194;2023-07-13T02:15:21;98566.84;;;30.90;29.58
14902;BME280;7542;49.078;9.194;2023-07-13T02:16:23;98566.03;;;30.89;29.39
14902;BME280;7542;49.078;9.194;2023-07-13T02:17:26;98567.16;;;30.88;29.21
14902;BME280;7542;49.078;9.194;2023-07-13T02:18:28;98573.38;;;30.88;29.38
14902;BME280;7542;49.078;9.194;2023-07-13T02:19:31;98570.97;;;30.87;29.70
14902;BME280;7542;49.078;9.194;2023-07-13T02:20:33;98579.41;;;30.85;29.20
14902;BME280;7542;49.078;9.194;2023-07-13T02:21:35;98564.25;;;30.84;29.18
14902;BME280;7542;49.078;9.194;2023-07-13T02:22:37;98573.50;;;30.83;29.44
14902;BME280;7542;49.078;9.194;2023-07-13T02:23:40;98577.56;;;30.81;29.61
14902;BME280;7542;49.078;9.194;2023-07-13T02:24:41;98580.28;;;30.81;29.37
14902;BME280;7542;49.078;9.194;2023-07-13T02:25:43;98573.28;;;30.80;28.99
14902;BME280;7542;49.078;9.194;2023-07-13T02:26:46;98575.19;;;30.79;28.97
14902;BME280;7542;49.078;9.194;2023-07-13T02:27:48;98577.88;;;30.79;29.00
14902;BME280;7542;49.078;9.194;2023-07-13T02:28:50;98585.50;;;30.77;29.13
14902;BME280;7542;49.078;9.194;2023-07-13T02:29:53;98585.00;;;30.75;29.54
14902;BME280;7542;49.078;9.194;2023-07-13T02:30:55;98579.09;;;30.73;29.00
14902;BME280;7542;49.078;9.194;2023-07-13T02:31:57;98581.81;;;30.73;29.64
14902;BME280;7542;49.078;9.194;2023-07-13T02:32:59;98583.72;;;30.73;29.30
14902;BME280;7542;49.078;9.194;2023-07-13T02:34:01;98578.59;;;30.71;29.40
14902;BME280;7542;49.078;9.194;2023-07-13T02:35:05;98581.28;;;30.71;29.32
14902;BME280;7542;49.078;9.194;2023-07-13T02:36:11;98587.50;;;30.72;28.90
14902;BME280;7542;49.078;9.194;2023-07-13T02:37:14;98586.22;;;30.69;29.23
14902;BME280;7542;49.078;9.194;2023-07-13T02:38:16;98579.19;;;30.68;29.53
14902;BME280;7542;49.078;9.194;2023-07-13T02:39:18;98583.00;;;30.67;29.07
14902;BME280;7542;49.078;9.194;2023-07-13T02:40:20;98587.31;;;30.68;29.50
14902;BME280;7542;49.078;9.194;2023-07-13T02:41:22;98584.13;;;30.66;29.43
14902;BME280;7542;49.078;9.194;2023-07-13T02:42:24;98579.81;;;30.65;29.52
14902;BME280;7542;49.078;9.194;2023-07-13T02:43:27;98584.69;;;30.63;29.33
14902;BME280;7542;49.078;9.194;2023-07-13T02:44:29;98585.53;;;30.64;28.98
14902;BME280;7542;49.078;9.194;2023-07-13T02:45:31;98577.16;;;30.60;29.36
14902;BME280;7542;49.078;9.194;2023-07-13T02:46:36;98581.97;;;30.63;29.44
14902;BME280;7542;49.078;9.194;2023-07-13T02:47:40;98579.84;;;30.60;29.41
14902;BME280;7542;49.078;9.194;2023-07-13T02:48:42;98583.38;;;30.60;29.47
14902;BME280;7542;49.078;9.194;2023-07-13T02:49:44;98577.47;;;30.58;29.55
14902;BME280;7542;49.078;9.194;2023-07-13T02:50:47;98575.06;;;30.57;29.42
14902;BME280;7542;49.078;9.194;2023-07-13T02:51:49;98575.84;;;30.57;29.05
14902;BME280;7542;49.078;9.194;2023-07-13T02:52:51;98582.69;;;30.55;29.57
14902;BME280;7542;49.078;9.194;2023-07-13T02:53:53;98572.66;;;30.55;29.24
14902;BME280;7542;49.078;9.194;2023-07-13T02:54:55;98579.16;;;30.54;29.35
14902;BME280;7542;49.078;9.194;2023-07-13T02:55:57;98574.06;;;30.53;29.44
14902;BME280;7542;49.078;9.194;2023-07-13T02:56:59;98578.69;;;30.52;29.23
14902;BME280;7542;49.078;9.194;2023-07-13T02:58:01;98576.28;;;30.51;29.36
14902;BME280;7542;49.078;9.194;2023-07-13T02:59:03;98580.06;;;30.50;29.53
14902;BME280;7542;49.078;9.194;2023-07-13T03:00:06;98581.16;;;30.49;29.01
14902;BME280;7542;49.078;9.194;2023-07-13T03:01:11;98577.34;;;30.50;29.61
14902;BME280;7542;49.078;9.194;2023-07-13T03:02:13;98578.44;;;30.49;29.04
14902;BME280;7542;49.078;9.194;2023-07-13T03:03:16;98583.06;;;30.48;29.51
14902;BME280;7542;49.078;9.194;2023-07-13T03:04:18;98575.25;;;30.47;29.35
14902;BME280;7542;49.078;9.194;2023-07-13T03:05:21;98578.75;;;30.47;29.27
14902;BME280;7542;49.078;9.194;2023-07-13T03:06:23;98577.97;;;30.47;29.25
14902;BME280;7542;49.078;9.194;2023-07-13T03:07:26;98576.97;;;30.43;29.51
14902;BME280;7542;49.078;9.194;2023-07-13T03:08:28;98585.09;;;30.43;29.18
14902;BME280;7542;49.078;9.194;2023-07-13T03:09:33;98571.56;;;30.43;29.40
14902;BME280;7542;49.078;9.194;2023-07-13T03:10:35;98590.78;;;30.41;29.32
14902;BME280;7542;49.078;9.194;2023-07-13T03:11:37;98580.28;;;30.40;29.65
14902;BME280;7542;49.078;9.194;2023-07-13T03:12:40;98587.88;;;30.38;29.39
14902;BME280;7542;49.078;9.194;2023-07-13T03:13:42;98586.75;;;30.39;29.37
14902;BME280;7542;49.078;9.194;2023-07-13T03:14:44;98592.16;;;30.39;29.20
14902;BME280;7542;49.078;9.194;2023-07-13T03:15:48;98598.69;;;30.38;29.41
14902;BME280;7542;49.078;9.194;2023-07-13T03:16:51;98595.50;;;30.36;29.42
14902;BME280;7542;49.078;9.194;2023-07-13T03:17:53;98589.56;;;30.34;29.32
14902;BME280;7542;49.078;9.194;2023-07-13T03:18:55;98596.09;;;30.33;29.82
14902;BME280;7542;49.078;9.194;2023-07-13T03:19:58;98591.78;;;30.32;29.70
14902;BME280;7542;49.078;9.194;2023-07-13T03:21:00;98599.41;;;30.29;29.68
14902;BME280;7542;49.078;9.194;2023-07-13T03:22:02;98599.41;;;30.29;29.82
14902;BME280;7542;49.078;9.194;2023-07-13T03:23:04;98600.50;;;30.28;29.18
14902;BME280;7542;49.078;9.194;2023-07-13T03:24:06;98596.47;;;30.26;29.37
14902;BME280;7542;49.078;9.194;2023-07-13T03:25:08;98599.47;;;30.24;29.76
14902;BME280;7542;49.078;9.194;2023-07-13T03:26:17;98598.06;;;30.27;29.34
14902;BME280;7542;49.078;9.194;2023-07-13T03:27:20;98602.97;;;30.25;29.90
14902;BME280;7542;49.078;9.194;2023-07-13T03:28:22;98601.69;;;30.22;29.78
14902;BME280;7542;49.078;9.194;2023-07-13T03:29:24;98602.47;;;30.23;29.92
14902;BME280;7542;49.078;9.194;2023-07-13T03:30:26;98606.28;;;30.22;29.99
14902;BME280;7542;49.078;9.194;2023-07-13T03:31:33;98601.69;;;30.22;29.40
14902;BME280;7542;49.078;9.194;2023-07-13T03:32:35;98603.88;;;30.20;29.97
14902;BME280;7542;49.078;9.194;2023-07-13T03:33:38;98613.91;;;30.20;30.00
14902;BME280;7542;49.078;9.194;2023-07-13T03:34:40;98613.09;;;30.19;29.70
14902;BME280;7542;49.078;9.194;2023-07-13T03:35:42;98608.00;;;30.18;29.81
14902;BME280;7542;49.078;9.194;2023-07-13T03:36:44;98624.50;;;30.16;29.67
14902;BME280;7542;49.078;9.194;2023-07-13T03:37:46;98610.47;;;30.14;29.99
14902;BME280;7542;49.078;9.194;2023-07-13T03:38:52;98616.38;;;30.16;29.55
14902;BME280;7542;49.078;9.194;2023-07-13T03:39:55;98615.88;;;30.14;29.63
14902;BME280;7542;49.078;9.194;2023-07-13T03:40:57;98606.47;;;30.12;29.80
14902;BME280;7542;49.078;9.194;2023-07-13T03:41:59;98610.78;;;30.13;30.19
14902;BME280;7542;49.078;9.194;2023-07-13T03:43:00;98620.00;;;30.12;30.02
14902;BME280;7542;49.078;9.194;2023-07-13T03:44:04;98613.78;;;30.11;30.07
14902;BME280;7542;49.078;9.194;2023-07-13T03:45:07;98625.69;;;30.10;29.91
14902;BME280;7542;49.078;9.194;2023-07-13T03:46:10;98624.09;;;30.09;29.65
14902;BME280;7542;49.078;9.194;2023-07-13T03:47:12;98632.22;;;30.09;29.91
14902;BME280;7542;49.078;9.194;2023-07-13T03:48:14;98628.69;;;30.09;30.21
14902;BME280;7542;49.078;9.194;2023-07-13T03:49:17;98621.97;;;30.06;29.72
14902;BME280;7542;49.078;9.194;2023-07-13T03:50:19;98624.66;;;30.06;29.89
14902;BME280;7542;49.078;9.194;2023-07-13T03:51:21;98621.44;;;30.04;30.32
14902;BME280;7542;49.078;9.194;2023-07-13T03:52:23;98631.94;;;30.06;29.73
14902;BME280;7542;49.078;9.194;2023-07-13T03:53:25;98626.84;;;30.04;30.42
14902;BME280;7542;49.078;9.194;2023-07-13T03:54:28;98628.75;;;30.03;30.19
14902;BME280;7542;49.078;9.194;2023-07-13T03:55:30;98630.66;;;30.03;30.10
14902;BME280;7542;49.078;9.194;2023-07-13T03:56:32;98629.84;;;30.02;29.85
14902;BME280;7542;49.078;9.194;2023-07-13T03:57:35;98634.44;;;30.02;30.48
14902;BME280;7542;49.078;9.194;2023-07-13T03:58:42;98643.66;;;30.01;29.95
14902;BME280;7542;49.078;9.194;2023-07-13T03:59:45;98638.84;;;29.98;29.90
14902;BME280;7542;49.078;9.194;2023-07-13T04:00:47;98641.56;;;29.98;30.33
14902;BME280;7542;49.078;9.194;2023-07-13T04:01:49;98635.66;;;29.96;30.25
14902;BME280;7542;49.078;9.194;2023-07-13T04:02:51;98637.81;;;29.94;29.92
14902;BME280;7542;49.078;9.194;2023-07-13T04:03:53;98635.41;;;29.92;30.32
14902;BME280;7542;49.078;9.194;2023-07-13T04:04:55;98637.31;;;29.92;30.21
14902;BME280;7542;49.078;9.194;2023-07-13T04:05:57;98648.13;;;29.92;30.70
14902;BME280;7542;49.078;9.194;2023-07-13T04:07:01;98644.94;;;29.90;30.43
14902;BME280;7542;49.078;9.194;2023-07-13T04:08:04;98644.41;;;29.88;30.31
14902;BME280;7542;49.078;9.194;2023-07-13T04:09:06;98639.31;;;29.86;30.54
14902;BME280;7542;49.078;9.194;2023-07-13T04:10:08;98642.28;;;29.85;30.14
14902;BME280;7542;49.078;9.194;2023-07-13T04:11:10;98644.19;;;29.84;30.52
14902;BME280;7542;49.078;9.194;2023-07-13T04:12:12;98654.19;;;29.84;30.25
14902;BME280;7542;49.078;9.194;2023-07-13T04:13:14;98648.59;;;29.80;30.34
14902;BME280;7542;49.078;9.194;2023-07-13T04:14:16;98651.28;;;29.80;30.69
14902;BME280;7542;49.078;9.194;2023-07-13T04:15:19;98656.69;;;29.80;30.57
14902;BME280;7542;49.078;9.194;2023-07-13T04:16:21;98652.38;;;29.79;30.57
14902;BME280;7542;49.078;9.194;2023-07-13T04:17:24;98653.50;;;29.78;31.06
14902;BME280;7542;49.078;9.194;2023-07-13T04:18:26;98655.38;;;29.78;30.82
14902;BME280;7542;49.078;9.194;2023-07-13T04:19:28;98657.28;;;29.77;30.86
14902;BME280;7542;49.078;9.194;2023-07-13T04:20:30;98664.91;;;29.75;30.48
14902;BME280;7542;49.078;9.194;2023-07-13T04:21:32;98662.47;;;29.73;30.55
14902;BME280;7542;49.078;9.194;2023-07-13T04:22:34;98660.56;;;29.74;30.87
14902;BME280;7542;49.078;9.194;2023-07-13T04:23:37;98670.56;;;29.73;30.84
14902;BME280;7542;49.078;9.194;2023-07-13T04:24:40;98670.56;;;29.73;30.76
14902;BME280;7542;49.078;9.194;2023-07-13T04:25:47;98668.41;;;29.76;30.95
14902;BME280;7542;49.078;9.194;2023-07-13T04:26:51;98665.97;;;29.74;30.95
14902;BME280;7542;49.078;9.194;2023-07-13T04:27:53;98671.16;;;29.70;30.48
14902;BME280;7542;49.078;9.194;2023-07-13T04:28:56;98671.16;;;29.70;30.98
14902;BME280;7542;49.078;9.194;2023-07-13T04:29:59;98663.34;;;29.69;30.84
14902;BME280;7542;49.078;9.194;2023-07-13T04:31:01;98666.84;;;29.69;30.75
14902;BME280;7542;49.078;9.194;2023-07-13T04:32:03;98662.56;;;29.68;31.13
14902;BME280;7542;49.078;9.194;2023-07-13T04:33:06;98666.84;;;29.69;30.91
14902;BME280;7542;49.078;9.194;2023-07-13T04:34:08;98674.97;;;29.69;30.76
14902;BME280;7542;49.078;9.194;2023-07-13T04:35:10;98662.84;;;29.67;30.85
14902;BME280;7542;49.078;9.194;2023-07-13T04:36:12;98665.25;;;29.68;30.78
14902;BME280;7542;49.078;9.194;2023-07-13T04:37:14;98670.66;;;29.68;30.77
14902;BME280;7542;49.078;9.194;2023-07-13T04:38:16;98661.75;;;29.68;31.13
14902;BME280;7542;49.078;9.194;2023-07-13T04:39:18;98669.84;;;29.68;30.95
14902;BME280;7542;49.078;9.194;2023-07-13T04:40:21;98669.06;;;29.67;31.01
14902;BME280;7542;49.078;9.194;2023-07-13T04:41:23;98666.66;;;29.66;31.24
14902;BME280;7542;49.078;9.194;2023-07-13T04:42:25;98668.53;;;29.65;31.06
14902;BME280;7542;49.078;9.194;2023-07-13T04:43:28;98663.94;;;29.66;30.76
14902;BME280;7542;49.078;9.194;2023-07-13T04:44:30;98667.16;;;29.68;31.09
14902;BME280;7542;49.078;9.194;2023-07-13T04:45:34;98665.03;;;29.65;31.00
14902;BME280;7542;49.078;9.194;2023-07-13T04:46:37;98658.84;;;29.64;30.77
14902;BME280;7542;49.078;9.194;2023-07-13T04:47:40;98661.00;;;29.62;31.46
14902;BME280;7542;49.078;9.194;2023-07-13T04:48:42;98659.94;;;29.63;31.56
14902;BME280;7542;49.078;9.194;2023-07-13T04:49:45;98660.75;;;29.64;31.11
14902;BME280;7542;49.078;9.194;2023-07-13T04:50:47;98665.34;;;29.63;31.30
14902;BME280;7542;49.078;9.194;2023-07-13T04:51:49;98662.91;;;29.62;31.59
14902;BME280;7542;49.078;9.194;2023-07-13T04:52:52;98665.09;;;29.60;31.41
14902;BME280;7542;49.078;9.194;2023-07-13T04:53:54;98670.50;;;29.60;31.48
14902;BME280;7542;49.078;9.194;2023-07-13T04:55:02;98670.22;;;29.61;31.47
14902;BME280;7542;49.078;9.194;2023-07-13T04:56:04;98661.59;;;29.59;31.11
14902;BME280;7542;49.078;9.194;2023-07-13T04:57:06;98668.59;;;29.60;30.95
14902;BME280;7542;49.078;9.194;2023-07-13T04:58:08;98668.09;;;29.58;31.51
14902;BME280;7542;49.078;9.194;2023-07-13T04:59:10;98670.81;;;29.58;31.51
14902;BME280;7542;49.078;9.194;2023-07-13T05:00:14;98668.41;;;29.57;31.16
14902;BME280;7542;49.078;9.194;2023-07-13T05:01:17;98671.59;;;29.59;31.15
14902;BME280;7542;49.078;9.194;2023-07-13T05:02:22;98672.69;;;29.58;31.40
14902;BME280;7542;49.078;9.194;2023-07-13T05:03:24;98668.41;;;29.57;31.68
14902;BME280;7542;49.078;9.194;2023-07-13T05:04:27;98674.09;;;29.55;31.58
14902;BME280;7542;49.078;9.194;2023-07-13T05:05:29;98671.41;;;29.55;31.64
14902;BME280;7542;49.078;9.194;2023-07-13T05:06:31;98666.00;;;29.55;31.26
14902;BME280;7542;49.078;9.194;2023-07-13T05:07:33;98669.78;;;29.54;31.66
14902;BME280;7542;49.078;9.194;2023-07-13T05:08:35;98668.19;;;29.53;31.23
14902;BME280;7542;49.078;9.194;2023-07-13T05:09:37;98667.88;;;29.55;31.53
14902;BME280;7542;49.078;9.194;2023-07-13T05:10:39;98666.28;;;29.54;31.34
14902;BME280;7542;49.078;9.194;2023-07-13T05:11:41;98670.09;;;29.53;31.28
14902;BME280;7542;49.078;9.194;2023-07-13T05:12:43;98666.03;;;29.50;31.30
14902;BME280;7542;49.078;9.194;2023-07-13T05:13:45;98668.44;;;29.52;31.77
14902;BME280;7542;49.078;9.194;2023-07-13T05:14:47;98673.84;;;29.52;31.82
14902;BME280;7542;49.078;9.194;2023-07-13T05:16:01;98676.78;;;29.55;31.70
14902;BME280;7542;49.078;9.194;2023-07-13T05:17:04;98674.16;;;29.50;31.72
14902;BME280;7542;49.078;9.194;2023-07-13T05:18:06;98669.03;;;29.49;31.77
14902;BME280;7542;49.078;9.194;2023-07-13T05:19:08;98672.84;;;29.48;32.11
14902;BME280;7542;49.078;9.194;2023-07-13T05:20:11;98673.66;;;29.48;32.09
14902;BME280;7542;49.078;9.194;2023-07-13T05:21:13;98676.59;;;29.47;32.03
14902;BME280;7542;49.078;9.194;2023-07-13T05:22:16;98670.13;;;29.48;31.52
14902;BME280;7542;49.078;9.194;2023-07-13T05:23:18;98670.41;;;29.46;32.13
14902;BME280;7542;49.078;9.194;2023-07-13T05:24:19;98675.00;;;29.45;31.97
14902;BME280;7542;49.078;9.194;2023-07-13T05:25:26;98674.72;;;29.47;32.11
14902;BME280;7542;49.078;9.194;2023-07-13T05:26:28;98669.59;;;29.45;32.31
14902;BME280;7542;49.078;9.194;2023-07-13T05:27:30;98673.91;;;29.47;31.78
14902;BME280;7542;49.078;9.194;2023-07-13T05:28:33;98679.59;;;29.45;32.24
14902;BME280;7542;49.078;9.194;2023-07-13T05:29:35;98679.59;;;29.45;31.94
14902;BME280;7542;49.078;9.194;2023-07-13T05:30:38;98672.59;;;29.44;31.90
14902;BME280;7542;49.078;9.194;2023-07-13T05:31:40;98675.28;;;29.44;32.26
14902;BME280;7542;49.078;9.194;2023-07-13T05:32:42;98678.28;;;29.42;31.90
14902;BME280;7542;49.078;9.194;2023-07-13T05:33:44;98680.69;;;29.44;32.48
14902;BME280;7542;49.078;9.194;2023-07-13T05:34:46;98681.00;;;29.42;31.87
14902;BME280;7542;49.078;9.194;2023-07-13T05:35:48;98680.19;;;29.42;32.32
14902;BME280;7542;49.078;9.194;2023-07-13T05:36:50;98684.75;;;29.41;31.85
14902;BME280;7542;49.078;9.194;2023-07-13T05:37:53;98681.00;;;29.42;31.97
14902;BME280;7542;49.078;9.194;2023-07-13T05:38:55;98675.06;;;29.40;32.27
14902;BME280;7542;49.078;9.194;2023-07-13T05:39:57;98679.34;;;29.41;32.19